sensor_id;sensor_type;location;lat;lon;timestamp;pressure;altitude;pressure_sealevel;temperature;humidity
26043;BME280;13818;52.156;5.382;2023-02-18T00:01:08;101924.25;;;10.69;100.00
26043;BME280;13818;52.156;5.382;2023-02-18T00:03:34;101927.28;;;10.86;100.00
26043;BME280;13818;52.156;5.382;2023-02-18T00:06:11;101922.97;;;10.82;100.00
26043;BME280;13818;52.156;5.382;2023-02-18T00:08:38;101923.03;;;10.81;100.00
26043;BME280;13818;52.156;5.382;2023-02-18T00:11:04;101924.63;;;10.86;100.00
26043;BME280;13818;52.156;5.382;2023-02-18T00:13:31;101923.81;;;10.84;100.00
26043;BME280;13818;52.156;5.382;2023-02-18T00:16:00;101921.88;;;10.89;100.00
26043;BME280;13818;52.156;5.382;2023-02-18T00:18:28;101921.69;;;10.96;100.00
26043;BME280;13818;52.156;5.382;2023-02-18T00:20:54;101918.06;;;10.98;100.00
26043;BME280;13818;52.156;5.382;2023-02-18T00:23:22;101928.00;;;10.91;100.00
26043;BME280;13818;52.156;5.382;2023-02-18T00:25:49;101913.09;;;10.86;100.00
26043;BME280;13818;52.156;5.382;2023-02-18T00:28:15;101919.63;;;10.74;100.00
26043;BME280;13818;52.156;5.382;2023-02-18T00:30:42;101909.13;;;10.69;100.00
26043;BME280;13818;52.156;5.382;2023-02-18T00:33:09;101915.19;;;10.74;100.00
26043;BME280;13818;52.156;5.382;2023-02-18T00:35:35;101904.66;;;10.70;100.00
26043;BME280;13818;52.156;5.382;2023-02-18T00:38:01;101907.31;;;10.70;100.00
26043;BME280;13818;52.156;5.382;2023-02-18T00:40:30;101912.78;;;10.65;100.00
26043;BME280;13818;52.156;5.382;2023-02-18T00:42:57;101903.25;;;10.58;100.00
26043;BME280;13818;52.156;5.382;2023-02-18T00:45:23;101903.06;;;10.64;100.00
26043;BME280;13818;52.156;5.382;2023-02-18T00:47:50;101902.97;;;10.67;100.00
26043;BME280;13818;52.156;5.382;2023-02-18T00:50:16;101897.00;;;10.59;100.00
26043;BME280;13818;52.156;5.382;2023-02-18T00:52:43;101896.59;;;10.71;100.00
26043;BME280;13818;52.156;5.382;2023-02-18T00:55:09;101892.28;;;10.67;100.00
26043;BME280;13818;52.156;5.382;2023-02-18T00:57:38;101883.25;;;10.73;100.00
26043;BME280;13818;52.156;5.382;2023-02-18T01:00:06;101894.09;;;10.67;100.00
26043;BME280;13818;52.156;5.382;2023-02-18T01:02:34;101887.09;;;10.63;100.00
26043;BME280;13818;52.156;5.382;2023-02-18T01:05:01;101889.56;;;10.69;100.00
26043;BME280;13818;52.156;5.382;2023-02-18T01:07:28;101891.44;;;10.65;100.00
26043;BME280;13818;52.156;5.382;2023-02-18T01:09:55;101889.50;;;10.72;100.00
26043;BME280;13818;52.156;5.382;2023-02-18T01:12:21;101885.19;;;10.68;100.00
26043;BME280;13818;52.156;5.382;2023-02-18T01:14:49;101882.69;;;10.62;100.00
26043;BME280;13818;52.156;5.382;2023-02-18T01:17:16;101890.53;;;10.66;100.00
26043;BME280;13818;52.156;5.382;2023-02-18T01:19:42;101889.13;;;10.54;100.00
26043;BME280;13818;52.156;5.382;2023-02-18T01:22:09;101886.34;;;10.59;100.00
26043;BME280;13818;52.156;5.382;2023-02-18T01:24:35;101888.50;;;10.45;100.00
26043;BME280;13818;52.156;5.382;2023-02-18T01:27:03;101878.81;;;10.42;100.00
26043;BME280;13818;52.156;5.382;2023-02-18T01:29:29;101881.47;;;10.42;100.00
26043;BME280;13818;52.156;5.382;2023-02-18T01:31:57;101883.41;;;10.35;100.00
26043;BME280;13818;52.156;5.382;2023-02-18T01:34:23;101880.69;;;10.38;100.00
26043;BME280;13818;52.156;5.382;2023-02-18T01:36:50;101871.56;;;10.47;100.00
26043;BME280;13818;52.156;5.382;2023-02-18T01:39:17;101871.84;;;10.38;100.00
26043;BME280;13818;52.156;5.382;2023-02-18T01:41:43;101867.72;;;10.24;100.00
26043;BME280;13818;52.156;5.382;2023-02-18T01:44:11;101863.00;;;10.36;100.00
26043;BME280;13818;52.156;5.382;2023-02-18T01:46:38;101861.44;;;10.27;100.00
26043;BME280;13818;52.156;5.382;2023-02-18T01:49:07;101852.81;;;10.17;100.00
26043;BME280;13818;52.156;5.382;2023-02-18T01:51:35;101855.53;;;10.16;100.00
26043;BME280;13818;52.156;5.382;2023-02-18T01:54:05;101850.22;;;10.16;100.00
26043;BME280;13818;52.156;5.382;2023-02-18T01:56:38;101849.41;;;10.14;100.00
26043;BME280;13818;52.156;5.382;2023-02-18T01:59:09;101851.00;;;10.19;100.00
26043;BME280;13818;52.156;5.382;2023-02-18T02:01:38;101847.09;;;10.00;100.00
26043;BME280;13818;52.156;5.382;2023-02-18T02:04:06;101855.88;;;10.03;100.00
26043;BME280;13818;52.156;5.382;2023-02-18T02:06:33;101851.16;;;10.13;100.00
26043;BME280;13818;52.156;5.382;2023-02-18T02:09:02;101844.84;;;10.17;100.00
26043;BME280;13818;52.156;5.382;2023-02-18T02:14:27;101825.78;;;10.00;100.00
26043;BME280;13818;52.156;5.382;2023-02-18T02:17:02;101822.81;;;10.10;100.00
26043;BME280;13818;52.156;5.382;2023-02-18T02:22:51;101810.53;;;10.06;100.00
26043;BME280;13818;52.156;5.382;2023-02-18T02:25:39;101799.81;;;10.08;100.00
26043;BME280;13818;52.156;5.382;2023-02-18T02:28:29;101791.16;;;10.00;100.00
26043;BME280;13818;52.156;5.382;2023-02-18T02:34:34;101763.25;;;10.13;100.00
26043;BME280;13818;52.156;5.382;2023-02-18T02:37:09;101755.50;;;10.05;100.00
26043;BME280;13818;52.156;5.382;2023-02-18T02:39:44;101746.53;;;10.08;100.00
26043;BME280;13818;52.156;5.382;2023-02-18T02:42:19;101734.91;;;10.10;100.00
26043;BME280;13818;52.156;5.382;2023-02-18T02:44:54;101730.31;;;10.16;100.00
26043;BME280;13818;52.156;5.382;2023-02-18T02:47:27;101725.28;;;10.06;100.00
26043;BME280;13818;52.156;5.382;2023-02-18T02:50:00;101720.00;;;10.05;100.00
26043;BME280;13818;52.156;5.382;2023-02-18T02:52:31;101712.78;;;10.08;100.00
26043;BME280;13818;52.156;5.382;2023-02-18T02:54:59;101716.38;;;10.07;100.00
26043;BME280;13818;52.156;5.382;2023-02-18T02:57:42;101710.94;;;10.10;100.00
26043;BME280;13818;52.156;5.382;2023-02-18T03:00:12;101702.88;;;10.14;100.00
26043;BME280;13818;52.156;5.382;2023-02-18T03:02:48;101700.16;;;10.15;100.00
26043;BME280;13818;52.156;5.382;2023-02-18T03:05:27;101692.28;;;10.10;100.00
26043;BME280;13818;52.156;5.382;2023-02-18T03:08:18;101682.41;;;10.14;100.00
26043;BME280;13818;52.156;5.382;2023-02-18T03:10:54;101686.06;;;10.12;100.00
26043;BME280;13818;52.156;5.382;2023-02-18T03:13:31;101679.09;;;10.06;100.00
26043;BME280;13818;52.156;5.382;2023-02-18T03:16:03;101675.16;;;10.19;100.00
26043;BME280;13818;52.156;5.382;2023-02-18T03:18:37;101686.66;;;10.20;100.00
26043;BME280;13818;52.156;5.382;2023-02-18T03:21:09;101678.66;;;10.21;100.00
26043;BME280;13818;52.156;5.382;2023-02-18T03:23:41;101674.13;;;10.23;100.00
26043;BME280;13818;52.156;5.382;2023-02-18T03:26:11;101667.88;;;10.24;100.00
26043;BME280;13818;52.156;5.382;2023-02-18T03:28:40;101659.81;;;10.28;100.00
26043;BME280;13818;52.156;5.382;2023-02-18T03:31:10;101660.03;;;10.20;100.00
26043;BME280;13818;52.156;5.382;2023-02-18T03:33:42;101654.50;;;10.26;100.00
26043;BME280;13818;52.156;5.382;2023-02-18T03:36:11;101647.22;;;10.33;100.00
26043;BME280;13818;52.156;5.382;2023-02-18T03:38:41;101642.34;;;10.17;100.00
26043;BME280;13818;52.156;5.382;2023-02-18T03:41:09;101633.91;;;10.31;100.00
26043;BME280;13818;52.156;5.382;2023-02-18T03:43:41;101633.81;;;10.36;100.00
26043;BME280;13818;52.156;5.382;2023-02-18T03:46:14;101621.56;;;10.29;100.00
26043;BME280;13818;52.156;5.382;2023-02-18T03:48:40;101611.06;;;10.24;100.00
26043;BME280;13818;52.156;5.382;2023-02-18T03:51:07;101618.97;;;10.27;100.00
26043;BME280;13818;52.156;5.382;2023-02-18T03:53:35;101617.25;;;10.24;100.00
26043;BME280;13818;52.156;5.382;2023-02-18T03:56:01;101614.53;;;10.28;100.00
26043;BME280;13818;52.156;5.382;2023-02-18T03:58:28;101607.31;;;10.30;100.00
26043;BME280;13818;52.156;5.382;2023-02-18T04:00:54;101594.00;;;10.30;100.00
26043;BME280;13818;52.156;5.382;2023-02-18T04:03:21;101602.78;;;10.33;100.00
26043;BME280;13818;52.156;5.382;2023-02-18T04:05:47;101602.72;;;10.35;100.00
26043;BME280;13818;52.156;5.382;2023-02-18T04:08:13;101600.94;;;10.35;100.00
26043;BME280;13818;52.156;5.382;2023-02-18T04:10:41;101594.72;;;10.35;100.00
26043;BME280;13818;52.156;5.382;2023-02-18T04:13:08;101586.63;;;10.39;100.00
26043;BME280;13818;52.156;5.382;2023-02-18T04:15:34;101582.31;;;10.34;100.00
26043;BME280;13818;52.156;5.382;2023-02-18T04:18:01;101573.56;;;10.30;100.00
26043;BME280;13818;52.156;5.382;2023-02-18T04:20:28;101566.28;;;10.35;100.00
26043;BME280;13818;52.156;5.382;2023-02-18T04:22:54;101570.84;;;10.32;100.00
26043;BME280;13818;52.156;5.382;2023-02-18T04:25:21;101553.88;;;10.34;100.00
26043;BME280;13818;52.156;5.382;2023-02-18T04:27:48;101555.47;;;10.41;100.00
26043;BME280;13818;52.156;5.382;2023-02-18T04:30:15;101554.75;;;10.35;100.00
26043;BME280;13818;52.156;5.382;2023-02-18T04:32:41;101560.88;;;10.38;100.00
26043;BME280;13818;52.156;5.382;2023-02-18T04:35:08;101565.41;;;10.36;100.00
26043;BME280;13818;52.156;5.382;2023-02-18T04:37:34;101555.56;;;10.38;100.00
26043;BME280;13818;52.156;5.382;2023-02-18T04:40:01;101560.81;;;10.40;100.00
26043;BME280;13818;52.156;5.382;2023-02-18T04:42:28;101546.50;;;10.42;100.00
26043;BME280;13818;52.156;5.382;2023-02-18T04:44:56;101542.34;;;10.34;100.00
26043;BME280;13818;52.156;5.382;2023-02-18T04:47:22;101538.75;;;10.35;100.00
26043;BME280;13818;52.156;5.382;2023-02-18T04:49:49;101530.06;;;10.30;100.00
26043;BME280;13818;52.156;5.382;2023-02-18T04:52:15;101529.00;;;10.34;100.00
26043;BME280;13818;52.156;5.382;2023-02-18T04:54:42;101535.28;;;10.33;100.00
26043;BME280;13818;52.156;5.382;2023-02-18T04:57:09;101520.03;;;10.38;100.00
26043;BME280;13818;52.156;5.382;2023-02-18T04:59:35;101509.44;;;10.36;100.00
26043;BME280;13818;52.156;5.382;2023-02-18T05:02:03;101510.41;;;10.32;100.00
26043;BME280;13818;52.156;5.382;2023-02-18T05:04:30;101529.88;;;10.36;100.00
26043;BME280;13818;52.156;5.382;2023-02-18T05:06:57;101527.22;;;10.36;100.00
26043;BME280;13818;52.156;5.382;2023-02-18T05:09:23;101521.81;;;10.37;100.00
26043;BME280;13818;52.156;5.382;2023-02-18T05:11:50;101522.81;;;10.33;100.00
26043;BME280;13818;52.156;5.382;2023-02-18T05:14:17;101521.06;;;10.32;100.00
26043;BME280;13818;52.156;5.382;2023-02-18T05:16:43;101524.56;;;10.36;100.00
26043;BME280;13818;52.156;5.382;2023-02-18T05:19:13;101527.59;;;10.23;100.00
26043;BME280;13818;52.156;5.382;2023-02-18T05:21:40;101524.72;;;10.30;100.00
26043;BME280;13818;52.156;5.382;2023-02-18T05:24:06;101523.88;;;10.29;100.00
26043;BME280;13818;52.156;5.382;2023-02-18T05:26:34;101518.69;;;10.24;100.00
26043;BME280;13818;52.156;5.382;2023-02-18T05:29:00;101512.53;;;10.22;100.00
26043;BME280;13818;52.156;5.382;2023-02-18T05:31:27;101512.50;;;10.24;100.00
26043;BME280;13818;52.156;5.382;2023-02-18T05:33:54;101502.69;;;10.24;100.00
26043;BME280;13818;52.156;5.382;2023-02-18T05:36:22;101502.75;;;10.23;100.00
26043;BME280;13818;52.156;5.382;2023-02-18T05:38:49;101503.53;;;10.26;100.00
26043;BME280;13818;52.156;5.382;2023-02-18T05:41:16;101494.63;;;10.28;100.00
26043;BME280;13818;52.156;5.382;2023-02-18T05:43:43;101481.22;;;10.29;100.00
26043;BME280;13818;52.156;5.382;2023-02-18T05:46:27;101472.25;;;10.32;100.00
26043;BME280;13818;52.156;5.382;2023-02-18T05:48:53;101475.00;;;10.29;100.00
26043;BME280;13818;52.156;5.382;2023-02-18T05:51:21;101484.69;;;10.31;100.00
26043;BME280;13818;52.156;5.382;2023-02-18T05:53:48;101471.38;;;10.31;100.00
26043;BME280;13818;52.156;5.382;2023-02-18T05:56:14;101485.47;;;10.35;100.00
26043;BME280;13818;52.156;5.382;2023-02-18T05:58:41;101472.13;;;10.36;100.00
26043;BME280;13818;52.156;5.382;2023-02-18T06:01:08;101466.03;;;10.31;100.00
26043;BME280;13818;52.156;5.382;2023-02-18T06:03:34;101476.69;;;10.31;100.00
26043;BME280;13818;52.156;5.382;2023-02-18T06:06:01;101467.72;;;10.34;100.00
26043;BME280;13818;52.156;5.382;2023-02-18T06:08:28;101478.19;;;10.40;100.00
26043;BME280;13818;52.156;5.382;2023-02-18T06:11:02;101479.34;;;10.33;100.00
26043;BME280;13818;52.156;5.382;2023-02-18T06:13:29;101471.19;;;10.37;100.00
26043;BME280;13818;52.156;5.382;2023-02-18T06:15:55;101476.56;;;10.36;100.00
26043;BME280;13818;52.156;5.382;2023-02-18T06:18:22;101484.81;;;10.28;100.00
26043;BME280;13818;52.156;5.382;2023-02-18T06:20:49;101473.06;;;10.34;100.00
26043;BME280;13818;52.156;5.382;2023-02-18T06:23:16;101488.06;;;10.38;100.00
26043;BME280;13818;52.156;5.382;2023-02-18T06:25:44;101478.25;;;10.38;100.00
26043;BME280;13818;52.156;5.382;2023-02-18T06:28:10;101483.59;;;10.38;100.00
26043;BME280;13818;52.156;5.382;2023-02-18T06:30:36;101477.19;;;10.44;100.00
26043;BME280;13818;52.156;5.382;2023-02-18T06:33:03;101481.69;;;10.42;100.00
26043;BME280;13818;52.156;5.382;2023-02-18T06:35:29;101484.22;;;10.47;100.00
26043;BME280;13818;52.156;5.382;2023-02-18T06:37:56;101478.13;;;10.43;100.00
26043;BME280;13818;52.156;5.382;2023-02-18T06:40:22;101474.53;;;10.44;100.00
26043;BME280;13818;52.156;5.382;2023-02-18T06:42:50;101484.22;;;10.47;100.00
26043;BME280;13818;52.156;5.382;2023-02-18T06:45:17;101473.41;;;10.50;100.00
26043;BME280;13818;52.156;5.382;2023-02-18T06:47:44;101480.63;;;10.48;100.00
26043;BME280;13818;52.156;5.382;2023-02-18T06:50:10;101477.91;;;10.49;100.00
26043;BME280;13818;52.156;5.382;2023-02-18T06:52:37;101484.38;;;10.42;100.00
26043;BME280;13818;52.156;5.382;2023-02-18T06:55:04;101482.75;;;10.38;100.00
26043;BME280;13818;52.156;5.382;2023-02-18T06:57:31;101475.38;;;10.45;100.00
26043;BME280;13818;52.156;5.382;2023-02-18T06:59:59;101483.53;;;10.40;100.00
26043;BME280;13818;52.156;5.382;2023-02-18T07:02:26;101465.84;;;10.39;100.00
26043;BME280;13818;52.156;5.382;2023-02-18T07:04:52;101467.00;;;10.30;100.00
26043;BME280;13818;52.156;5.382;2023-02-18T07:07:19;101469.53;;;10.33;100.00
26043;BME280;13818;52.156;5.382;2023-02-18T07:09:46;101469.47;;;10.35;100.00
26043;BME280;13818;52.156;5.382;2023-02-18T07:12:12;101470.44;;;10.32;100.00
26043;BME280;13818;52.156;5.382;2023-02-18T07:14:39;101461.47;;;10.35;100.00
26043;BME280;13818;52.156;5.382;2023-02-18T07:17:06;101463.44;;;10.30;100.00
26043;BME280;13818;52.156;5.382;2023-02-18T07:19:33;101458.88;;;10.33;100.00
26043;BME280;13818;52.156;5.382;2023-02-18T07:21:59;101477.47;;;10.35;100.00
26043;BME280;13818;52.156;5.382;2023-02-18T07:24:26;101466.94;;;10.32;100.00
26043;BME280;13818;52.156;5.382;2023-02-18T07:26:53;101470.38;;;10.34;100.00
26043;BME280;13818;52.156;5.382;2023-02-18T07:29:19;101457.94;;;10.36;100.00
26043;BME280;13818;52.156;5.382;2023-02-18T07:31:45;101463.19;;;10.37;100.00
26043;BME280;13818;52.156;5.382;2023-02-18T07:34:13;101457.00;;;10.37;100.00
26043;BME280;13818;52.156;5.382;2023-02-18T07:36:40;101460.72;;;10.31;100.00
26043;BME280;13818;52.156;5.382;2023-02-18T07:39:06;101462.41;;;10.34;100.00
26043;BME280;13818;52.156;5.382;2023-02-18T07:41:33;101449.88;;;10.37;100.00
26043;BME280;13818;52.156;5.382;2023-02-18T07:43:59;101449.66;;;10.44;100.00
26043;BME280;13818;52.156;5.382;2023-02-18T07:46:26;101447.06;;;10.42;100.00
26043;BME280;13818;52.156;5.382;2023-02-18T07:48:52;101446.34;;;10.37;100.00
26043;BME280;13818;52.156;5.382;2023-02-18T07:51:20;101456.72;;;10.45;100.00
26043;BME280;13818;52.156;5.382;2023-02-18T07:53:47;101445.03;;;10.49;100.00
26043;BME280;13818;52.156;5.382;2023-02-18T07:56:15;101467.72;;;10.61;100.00
26043;BME280;13818;52.156;5.382;2023-02-18T07:58:43;101452.78;;;10.56;100.00
26043;BME280;13818;52.156;5.382;2023-02-18T08:01:14;101464.06;;;10.63;100.00
26043;BME280;13818;52.156;5.382;2023-02-18T08:03:41;101462.81;;;10.48;100.00
26043;BME280;13818;52.156;5.382;2023-02-18T08:06:18;101474.63;;;10.41;100.00
26043;BME280;13818;52.156;5.382;2023-02-18T08:08:47;101481.34;;;10.51;100.00
26043;BME280;13818;52.156;5.382;2023-02-18T08:11:13;101468.75;;;10.56;100.00
26043;BME280;13818;52.156;5.382;2023-02-18T08:13:40;101475.94;;;10.54;100.00
26043;BME280;13818;52.156;5.382;2023-02-18T08:16:08;101474.25;;;10.52;100.00
26043;BME280;13818;52.156;5.382;2023-02-18T08:18:34;101482.41;;;10.47;100.00
26043;BME280;13818;52.156;5.382;2023-02-18T08:21:01;101469.56;;;10.58;100.00
26043;BME280;13818;52.156;5.382;2023-02-18T08:23:27;101482.59;;;10.66;100.00
26043;BME280;13818;52.156;5.382;2023-02-18T08:25:56;101479.47;;;10.55;100.00
26043;BME280;13818;52.156;5.382;2023-02-18T08:28:23;101488.22;;;10.58;100.00
26043;BME280;13818;52.156;5.382;2023-02-18T08:30:52;101498.25;;;10.52;100.00
26043;BME280;13818;52.156;5.382;2023-02-18T08:33:19;101492.66;;;10.33;100.00
26043;BME280;13818;52.156;5.382;2023-02-18T08:35:48;101498.00;;;10.31;100.00
26043;BME280;13818;52.156;5.382;2023-02-18T08:38:15;101496.25;;;10.32;100.00
26043;BME280;13818;52.156;5.382;2023-02-18T08:40:42;101507.75;;;10.32;100.00
26043;BME280;13818;52.156;5.382;2023-02-18T08:43:10;101499.81;;;10.31;100.00
26043;BME280;13818;52.156;5.382;2023-02-18T08:45:37;101503.13;;;10.39;100.00
26043;BME280;13818;52.156;5.382;2023-02-18T08:48:04;101504.19;;;10.33;100.00
26043;BME280;13818;52.156;5.382;2023-02-18T08:50:31;101487.72;;;10.47;100.00
26043;BME280;13818;52.156;5.382;2023-02-18T08:52:57;101475.22;;;10.49;100.00
26043;BME280;13818;52.156;5.382;2023-02-18T08:55:27;101480.72;;;10.45;100.00
26043;BME280;13818;52.156;5.382;2023-02-18T08:57:54;101493.34;;;10.39;100.00
26043;BME280;13818;52.156;5.382;2023-02-18T09:00:22;101495.22;;;10.36;100.00
26043;BME280;13818;52.156;5.382;2023-02-18T09:02:49;101502.34;;;10.35;100.00
26043;BME280;13818;52.156;5.382;2023-02-18T09:05:16;101498.78;;;10.35;100.00
26043;BME280;13818;52.156;5.382;2023-02-18T09:07:42;101504.19;;;10.33;100.00
26043;BME280;13818;52.156;5.382;2023-02-18T09:10:09;101497.31;;;10.26;100.00
26043;BME280;13818;52.156;5.382;2023-02-18T09:12:36;101511.25;;;10.34;100.00
26043;BME280;13818;52.156;5.382;2023-02-18T09:15:03;101504.06;;;10.38;100.00
26043;BME280;13818;52.156;5.382;2023-02-18T09:17:31;101507.38;;;10.45;100.00
26043;BME280;13818;52.156;5.382;2023-02-18T09:19:58;101497.47;;;10.48;100.00
26043;BME280;13818;52.156;5.382;2023-02-18T09:22:24;101504.91;;;10.38;100.00
26043;BME280;13818;52.156;5.382;2023-02-18T09:24:51;101505.69;;;10.42;100.00
26043;BME280;13818;52.156;5.382;2023-02-18T09:27:20;101493.34;;;10.39;100.00
26043;BME280;13818;52.156;5.382;2023-02-18T09:29:46;101503.88;;;10.42;100.00
26043;BME280;13818;52.156;5.382;2023-02-18T09:32:13;101507.50;;;10.41;100.00
26043;BME280;13818;52.156;5.382;2023-02-18T09:34:41;101514.44;;;10.46;100.00
26043;BME280;13818;52.156;5.382;2023-02-18T09:37:08;101506.38;;;10.47;100.00
26043;BME280;13818;52.156;5.382;2023-02-18T09:39:35;101509.19;;;10.44;100.00
26043;BME280;13818;52.156;5.382;2023-02-18T09:42:03;101527.63;;;10.50;100.00
26043;BME280;13818;52.156;5.382;2023-02-18T09:44:33;101517.94;;;10.48;100.00
26043;BME280;13818;52.156;5.382;2023-02-18T09:47:04;101526.47;;;10.57;100.00
26043;BME280;13818;52.156;5.382;2023-02-18T09:49:34;101528.34;;;10.54;100.00
26043;BME280;13818;52.156;5.382;2023-02-18T09:52:12;101531.00;;;10.55;100.00
26043;BME280;13818;52.156;5.382;2023-02-18T09:54:39;101531.69;;;10.61;100.00
26043;BME280;13818;52.156;5.382;2023-02-18T09:57:16;101532.63;;;10.60;100.00
26043;BME280;13818;52.156;5.382;2023-02-18T09:59:43;101533.09;;;10.71;100.00
26043;BME280;13818;52.156;5.382;2023-02-18T10:02:13;101524.63;;;10.60;100.00
26043;BME280;13818;52.156;5.382;2023-02-18T10:04:43;101522.56;;;10.68;100.00
26043;BME280;13818;52.156;5.382;2023-02-18T10:07:18;101524.00;;;10.77;100.00
26043;BME280;13818;52.156;5.382;2023-02-18T10:09:48;101540.75;;;10.80;100.00
26043;BME280;13818;52.156;5.382;2023-02-18T10:12:18;101542.63;;;10.78;100.00
26043;BME280;13818;52.156;5.382;2023-02-18T10:14:49;101539.09;;;10.78;100.00
26043;BME280;13818;52.156;5.382;2023-02-18T10:17:16;101544.31;;;10.81;100.00
26043;BME280;13818;52.156;5.382;2023-02-18T10:19:45;101534.56;;;10.80;100.00
26043;BME280;13818;52.156;5.382;2023-02-18T10:22:14;101548.69;;;10.83;100.00
26043;BME280;13818;52.156;5.382;2023-02-18T10:24:43;101536.88;;;10.90;100.00
26043;BME280;13818;52.156;5.382;2023-02-18T10:27:16;101535.81;;;10.95;100.00
26043;BME280;13818;52.156;5.382;2023-02-18T10:29:43;101536.75;;;10.94;100.00
26043;BME280;13818;52.156;5.382;2023-02-18T10:32:16;101541.94;;;10.97;100.00
26043;BME280;13818;52.156;5.382;2023-02-18T10:34:47;101538.78;;;11.11;100.00
26043;BME280;13818;52.156;5.382;2023-02-18T10:37:35;101537.16;;;11.06;100.00
26043;BME280;13818;52.156;5.382;2023-02-18T10:40:10;101541.13;;;11.20;100.00
26043;BME280;13818;52.156;5.382;2023-02-18T10:42:47;101556.84;;;11.28;100.00
26043;BME280;13818;52.156;5.382;2023-02-18T10:45:20;101554.69;;;11.37;100.00
26043;BME280;13818;52.156;5.382;2023-02-18T10:47:56;101560.78;;;11.41;100.00
26043;BME280;13818;52.156;5.382;2023-02-18T10:50:27;101542.19;;;11.38;100.00
26043;BME280;13818;52.156;5.382;2023-02-18T10:53:00;101555.22;;;11.47;100.00
26043;BME280;13818;52.156;5.382;2023-02-18T10:55:35;101555.94;;;11.51;100.00
26043;BME280;13818;52.156;5.382;2023-02-18T10:58:03;101564.78;;;11.53;100.00
26043;BME280;13818;52.156;5.382;2023-02-18T11:00:34;101554.16;;;11.51;100.00
26043;BME280;13818;52.156;5.382;2023-02-18T11:03:13;101552.13;;;11.58;100.00
26043;BME280;13818;52.156;5.382;2023-02-18T11:05:40;101539.13;;;11.71;100.00
26043;BME280;13818;52.156;5.382;2023-02-18T11:08:12;101543.88;;;11.64;100.00
26043;BME280;13818;52.156;5.382;2023-02-18T11:10:42;101545.28;;;11.73;100.00
26043;BME280;13818;52.156;5.382;2023-02-18T11:13:12;101544.91;;;11.82;100.00
26043;BME280;13818;52.156;5.382;2023-02-18T11:15:54;101550.69;;;11.94;100.00
26043;BME280;13818;52.156;5.382;2023-02-18T11:18:31;101545.47;;;12.14;100.00
26043;BME280;13818;52.156;5.382;2023-02-18T11:21:00;101551.16;;;12.05;100.00
26043;BME280;13818;52.156;5.382;2023-02-18T11:23:29;101548.47;;;11.83;100.00
26043;BME280;13818;52.156;5.382;2023-02-18T11:25:59;101558.03;;;11.88;100.00
26043;BME280;13818;52.156;5.382;2023-02-18T11:28:36;101553.13;;;11.78;100.00
26043;BME280;13818;52.156;5.382;2023-02-18T11:31:05;101551.94;;;11.85;100.00
26043;BME280;13818;52.156;5.382;2023-02-18T11:33:35;101566.13;;;11.87;100.00
26043;BME280;13818;52.156;5.382;2023-02-18T11:36:04;101557.53;;;11.79;100.00
26043;BME280;13818;52.156;5.382;2023-02-18T11:38:44;101561.69;;;11.86;100.00
26043;BME280;13818;52.156;5.382;2023-02-18T11:41:14;101557.47;;;11.80;100.00
26043;BME280;13818;52.156;5.382;2023-02-18T11:43:41;101557.28;;;11.85;100.00
26043;BME280;13818;52.156;5.382;2023-02-18T11:46:10;101568.03;;;11.83;100.00
26043;BME280;13818;52.156;5.382;2023-02-18T11:48:37;101557.97;;;11.68;100.00
26043;BME280;13818;52.156;5.382;2023-02-18T11:51:03;101561.81;;;11.61;100.00
26043;BME280;13818;52.156;5.382;2023-02-18T11:53:32;101556.69;;;11.54;100.00
26043;BME280;13818;52.156;5.382;2023-02-18T11:56:02;101565.81;;;11.72;100.00
26043;BME280;13818;52.156;5.382;2023-02-18T11:58:35;101557.72;;;11.74;100.00
26043;BME280;13818;52.156;5.382;2023-02-18T12:01:05;101552.25;;;11.77;100.00
26043;BME280;13818;52.156;5.382;2023-02-18T12:03:43;101567.97;;;11.85;100.00
26043;BME280;13818;52.156;5.382;2023-02-18T12:06:13;101552.91;;;11.84;100.00
26043;BME280;13818;52.156;5.382;2023-02-18T12:08:47;101557.78;;;11.95;100.00
26043;BME280;13818;52.156;5.382;2023-02-18T12:11:23;101552.59;;;11.92;100.00
26043;BME280;13818;52.156;5.382;2023-02-18T12:13:54;101548.59;;;11.80;100.00
26043;BME280;13818;52.156;5.382;2023-02-18T12:16:30;101543.00;;;11.86;100.00
26043;BME280;13818;52.156;5.382;2023-02-18T12:19:10;101546.41;;;11.89;100.00
26043;BME280;13818;52.156;5.382;2023-02-18T12:21:53;101552.59;;;11.92;100.00
26043;BME280;13818;52.156;5.382;2023-02-18T12:24:37;101553.09;;;12.01;100.00
26043;BME280;13818;52.156;5.382;2023-02-18T12:27:15;101548.38;;;12.08;100.00
26043;BME280;13818;52.156;5.382;2023-02-18T12:29:56;101549.44;;;12.04;100.00
26043;BME280;13818;52.156;5.382;2023-02-18T12:32:36;101543.97;;;12.07;100.00
26043;BME280;13818;52.156;5.382;2023-02-18T12:35:20;101535.88;;;12.09;100.00
26043;BME280;13818;52.156;5.382;2023-02-18T12:38:02;101533.69;;;12.18;100.00
26043;BME280;13818;52.156;5.382;2023-02-18T12:40:55;101548.72;;;12.21;100.00
26043;BME280;13818;52.156;5.382;2023-02-18T12:43:35;101556.56;;;12.26;100.00
26043;BME280;13818;52.156;5.382;2023-02-18T12:46:21;101551.22;;;12.26;100.00
26043;BME280;13818;52.156;5.382;2023-02-18T12:48:57;101553.81;;;12.27;100.00
26043;BME280;13818;52.156;5.382;2023-02-18T12:51:46;101559.69;;;12.35;100.00
26043;BME280;13818;52.156;5.382;2023-02-18T12:54:28;101553.50;;;12.35;100.00
26043;BME280;13818;52.156;5.382;2023-02-18T12:57:30;101554.91;;;12.44;100.00
26043;BME280;13818;52.156;5.382;2023-02-18T13:00:14;101555.41;;;12.53;100.00
26043;BME280;13818;52.156;5.382;2023-02-18T13:03:05;101550.97;;;12.52;100.00